Terminal Aerodrome Forecast
Issued by NWS

Home | Current Version | Previous Version | Text Only | Print | Product List | Glossary On
Versions: 1 2 3 4 5 6 7 8 9 10 11 12 13 14 15
000
FTUS43 KDTX 060530
TAFMBS
TAF
KMBS 060530Z 0606/0706 03005KT P6SM BKN080
     FM060800 03005KT P6SM BKN015
     FM061000 06005KT 6SM BR OVC009
     FM061500 10006KT P6SM OVC015=

USA.gov is the U.S. government's official web portal to all federal, state and local government web resources and services.